createdAt,value
2023-04-26T00:01:11.413Z,102113.06
2023-04-26T00:03:45.613Z,102113.09
2023-04-26T00:06:14.723Z,102112.22
2023-04-26T00:08:47.815Z,102114.00
2023-04-26T00:11:26.956Z,102111.38
2023-04-26T00:13:58.385Z,102120.28
2023-04-26T00:16:25.422Z,102119.44
2023-04-26T00:21:23.441Z,102119.47
2023-04-26T00:23:53.654Z,102109.69
2023-04-26T00:26:20.370Z,102107.91
2023-04-26T00:28:48.490Z,102113.28
2023-04-26T00:31:16.219Z,102111.53
2023-04-26T00:33:47.516Z,102105.34
2023-04-26T00:36:14.849Z,102109.78
2023-04-26T00:38:41.573Z,102112.47
2023-04-26T00:41:08.423Z,102107.19
2023-04-26T00:43:34.953Z,102100.97
2023-04-26T00:46:01.880Z,102102.75
2023-04-26T00:48:32.338Z,102104.56
2023-04-26T00:51:02.675Z,102100.16
2023-04-26T00:53:39.543Z,102102.84
2023-04-26T00:56:12.893Z,102093.09
2023-04-26T00:58:42.007Z,102094.88
2023-04-26T01:01:11.172Z,102094.91
2023-04-26T01:03:51.160Z,102099.41
2023-04-26T02:03:22.720Z,102099.06
2023-04-26T03:37:42.061Z,102097.00
2023-04-26T03:40:09.995Z,102091.66
2023-04-26T03:42:39.924Z,102091.69
2023-04-26T03:45:07.404Z,102087.25
2023-04-26T03:47:39.325Z,102093.44
2023-04-26T03:50:25.243Z,102089.03
2023-04-26T03:53:01.404Z,102086.41
2023-04-26T03:55:33.396Z,102098.81
2023-04-26T03:58:39.149Z,102094.41
2023-04-26T04:01:08.834Z,102094.41
2023-04-26T04:03:42.050Z,102098.88
2023-04-26T04:06:21.611Z,102095.31
2023-04-26T21:27:11.139Z,102235.06
2023-04-26T23:11:10.372Z,102274.09
2023-04-26T23:13:49.894Z,102276.84
2023-04-26T23:16:43.608Z,102283.06
2023-04-26T23:19:42.776Z,102279.53
2023-04-26T23:22:32.608Z,102278.69
2023-04-26T23:26:55.722Z,102286.75
2023-04-26T23:33:33.164Z,102293.97
2023-04-26T23:43:53.613Z,102294.09
2023-04-26T23:54:49.883Z,102301.34
